Time;durP1;ratioP1;P1;durP2;ratioP2;P2;SDS_P1;SDS_P2;PMS_P1;PMS_P2;Temp;Humidity;BMP_temperature;BMP_pressure;BME280_temperature;BME280_humidity;BME280_pressure;Samples;Min_cycle;Max_cycle;Signal;HPM_P1;HPM_P2
2021/09/25 00:00:38;;;;;;;3.93;3.53;;;10.50;99.90;;;;;;480644;246;27828;-70
2021/09/25 00:02:40;;;;;;;3.43;3.13;;;10.40;99.90;;;;;;480597;246;27404;-70
2021/09/25 00:04:41;;;;;;;3.90;3.53;;;10.40;99.90;;;;;;480597;246;27843;-70
2021/09/25 00:06:42;;;;;;;3.77;3.47;;;10.30;99.90;;;;;;480596;246;27508;-70
2021/09/25 00:08:43;;;;;;;4.10;3.70;;;10.40;99.90;;;;;;480536;246;27812;-70
2021/09/25 00:10:45;;;;;;;3.77;3.47;;;10.30;99.90;;;;;;480638;246;27760;-70
2021/09/25 00:12:46;;;;;;;4.00;3.70;;;10.30;99.90;;;;;;480522;246;27731;-70
2021/09/25 00:14:47;;;;;;;3.90;3.60;;;10.30;99.90;;;;;;480586;246;27537;-70
2021/09/25 00:16:48;;;;;;;3.43;3.13;;;10.30;99.90;;;;;;480595;246;27682;-70
2021/09/25 00:18:50;;;;;;;3.53;3.23;;;10.30;99.90;;;;;;480557;246;28272;-70
2021/09/25 00:20:51;;;;;;;3.73;3.43;;;10.20;99.90;;;;;;480590;246;28333;-70
2021/09/25 00:22:52;;;;;;;3.73;3.47;;;10.10;99.90;;;;;;480552;246;28312;-70
2021/09/25 00:24:53;;;;;;;3.97;3.57;;;10.00;99.90;;;;;;480576;246;27881;-70
2021/09/25 00:26:55;;;;;;;4.00;3.67;;;10.00;99.90;;;;;;480560;246;27845;-70
2021/09/25 00:28:56;;;;;;;4.40;3.73;;;10.00;99.90;;;;;;480582;246;27551;-70
2021/09/25 00:30:57;;;;;;;4.60;4.10;;;10.10;99.90;;;;;;480598;246;27918;-70
2021/09/25 00:32:58;;;;;;;4.50;3.43;;;10.10;99.90;;;;;;480557;246;27899;-70
2021/09/25 00:35:00;;;;;;;3.73;3.43;;;10.00;99.90;;;;;;480560;246;27580;-70
2021/09/25 00:37:01;;;;;;;4.07;3.67;;;10.00;99.90;;;;;;480542;244;27695;-70
2021/09/25 00:39:02;;;;;;;3.60;3.30;;;10.00;99.90;;;;;;480521;244;27544;-70
2021/09/25 00:41:03;;;;;;;3.90;3.30;;;10.00;99.90;;;;;;480430;246;28085;-70
2021/09/25 00:43:05;;;;;;;3.90;3.47;;;10.10;99.90;;;;;;480379;246;28092;-69
2021/09/25 00:45:06;;;;;;;3.80;3.50;;;10.10;99.90;;;;;;480312;246;28486;-70
2021/09/25 00:47:07;;;;;;;3.80;3.50;;;10.10;99.90;;;;;;480334;245;28928;-69
2021/09/25 00:49:08;;;;;;;3.90;3.60;;;10.00;99.90;;;;;;480526;246;27807;-70
2021/09/25 00:51:10;;;;;;;3.57;3.27;;;10.00;99.90;;;;;;480573;246;27668;-70
2021/09/25 00:53:11;;;;;;;4.30;3.60;;;9.90;99.90;;;;;;480541;246;27639;-69
2021/09/25 00:55:12;;;;;;;3.83;3.43;;;9.90;99.90;;;;;;480572;246;27453;-70
2021/09/25 00:57:13;;;;;;;3.77;3.40;;;9.90;99.90;;;;;;480575;247;27881;-70
2021/09/25 00:59:15;;;;;;;3.60;3.30;;;9.90;99.90;;;;;;480588;246;27989;-69
2021/09/25 01:01:16;;;;;;;4.60;4.20;;;9.80;99.90;;;;;;480565;247;27686;-70
2021/09/25 01:03:17;;;;;;;3.43;3.13;;;9.80;99.90;;;;;;480552;246;27785;-69
2021/09/25 01:05:20;;;;;;;4.07;3.67;;;9.80;99.90;;;;;;480589;246;27796;-70
2021/09/25 01:07:20;;;;;;;4.33;3.30;;;9.80;99.90;;;;;;480507;246;27895;-70
2021/09/25 01:09:21;;;;;;;4.83;3.97;;;9.70;99.90;;;;;;480577;246;27768;-70
2021/09/25 01:11:22;;;;;;;3.80;3.50;;;9.70;99.90;;;;;;480592;246;27803;-70
2021/09/25 01:13:23;;;;;;;3.40;3.10;;;9.70;99.90;;;;;;480565;246;27757;-70
2021/09/25 01:15:25;;;;;;;3.67;3.37;;;9.70;99.90;;;;;;480558;246;28407;-70
2021/09/25 01:17:26;;;;;;;3.50;3.20;;;9.70;99.90;;;;;;480569;246;28936;-70
2021/09/25 01:19:27;;;;;;;3.90;3.57;;;9.70;99.90;;;;;;480581;246;27982;-70
2021/09/25 01:21:28;;;;;;;3.60;3.30;;;9.70;99.90;;;;;;480587;246;28432;-70
2021/09/25 01:23:30;;;;;;;3.50;3.20;;;9.60;99.90;;;;;;480549;246;28210;-70
2021/09/25 01:25:31;;;;;;;3.80;3.50;;;9.60;99.90;;;;;;480575;246;27911;-70
2021/09/25 01:27:32;;;;;;;3.60;3.30;;;9.60;99.90;;;;;;480558;246;27888;-70
2021/09/25 01:29:33;;;;;;;4.20;3.83;;;9.60;99.90;;;;;;480585;246;27757;-70
2021/09/25 01:31:35;;;;;;;4.50;3.47;;;9.60;99.90;;;;;;480613;246;27767;-69
2021/09/25 01:33:38;;;;;;;4.70;3.70;;;9.60;99.90;;;;;;480574;246;27876;-70
2021/09/25 01:35:37;;;;;;;3.90;3.60;;;9.60;99.90;;;;;;480498;247;27829;-70
2021/09/25 01:37:38;;;;;;;4.00;3.60;;;9.60;99.90;;;;;;480602;246;27901;-70
2021/09/25 01:39:40;;;;;;;4.57;3.97;;;9.50;99.90;;;;;;480605;246;27795;-70
2021/09/25 01:41:41;;;;;;;3.50;3.20;;;9.50;99.90;;;;;;480613;246;27911;-69
2021/09/25 01:43:42;;;;;;;3.63;3.33;;;9.50;99.90;;;;;;480564;245;27647;-70
2021/09/25 01:45:43;;;;;;;3.43;3.13;;;9.50;99.90;;;;;;480512;246;27855;-69
2021/09/25 01:47:45;;;;;;;3.90;3.60;;;9.50;99.90;;;;;;480554;246;27495;-69
2021/09/25 01:49:46;;;;;;;3.77;3.47;;;9.50;99.90;;;;;;480555;246;27643;-70
2021/09/25 01:51:47;;;;;;;4.30;3.40;;;9.40;99.90;;;;;;480568;246;27849;-70
2021/09/25 01:53:48;;;;;;;5.63;3.97;;;9.40;99.90;;;;;;480547;246;28725;-70
2021/09/25 01:55:50;;;;;;;3.90;3.53;;;9.40;99.90;;;;;;480556;246;28474;-70
2021/09/25 01:57:51;;;;;;;4.17;3.87;;;9.40;99.90;;;;;;480557;246;28666;-70
2021/09/25 01:59:52;;;;;;;4.60;4.13;;;9.30;99.90;;;;;;480579;246;28228;-70
2021/09/25 02:01:54;;;;;;;4.20;3.80;;;9.20;99.90;;;;;;480593;246;28363;-70
2021/09/25 02:03:55;;;;;;;4.47;3.40;;;9.30;99.90;;;;;;480553;246;27743;-70
2021/09/25 02:05:56;;;;;;;3.60;3.30;;;9.30;99.90;;;;;;480585;246;27453;-70
2021/09/25 02:07:57;;;;;;;3.53;3.23;;;9.30;99.90;;;;;;480585;246;27858;-71
2021/09/25 02:09:58;;;;;;;3.83;3.53;;;9.40;99.90;;;;;;480584;246;27547;-70
2021/09/25 02:12:00;;;;;;;3.87;3.47;;;9.40;99.90;;;;;;480599;246;28033;-70
2021/09/25 02:14:01;;;;;;;4.10;3.77;;;9.40;99.90;;;;;;480567;246;27674;-69
2021/09/25 02:16:02;;;;;;;5.10;3.83;;;9.50;99.90;;;;;;480557;246;27919;-70
2021/09/25 02:18:03;;;;;;;3.97;3.67;;;9.50;99.90;;;;;;480574;246;27421;-70
2021/09/25 02:20:05;;;;;;;3.77;3.37;;;9.50;99.90;;;;;;480562;247;27775;-70
2021/09/25 02:22:06;;;;;;;3.77;3.47;;;9.40;99.90;;;;;;480581;246;27932;-70
2021/09/25 02:24:07;;;;;;;3.97;3.60;;;9.30;99.90;;;;;;480547;246;27768;-70
2021/09/25 02:26:08;;;;;;;3.70;3.40;;;9.30;99.90;;;;;;480591;246;27782;-70
2021/09/25 02:28:10;;;;;;;3.80;3.50;;;9.30;99.90;;;;;;480599;246;28200;-70
2021/09/25 02:30:11;;;;;;;4.13;3.77;;;9.30;99.90;;;;;;480561;246;27944;-69
2021/09/25 02:32:12;;;;;;;3.73;3.40;;;9.30;99.90;;;;;;480598;246;28406;-69
2021/09/25 02:34:13;;;;;;;3.90;3.50;;;9.30;99.90;;;;;;480485;247;28370;-71
2021/09/25 02:36:15;;;;;;;4.43;3.50;;;9.30;99.90;;;;;;480546;246;28303;-70
2021/09/25 02:38:16;;;;;;;4.27;3.87;;;9.20;99.90;;;;;;480590;245;28283;-69
2021/09/25 02:40:17;;;;;;;3.60;3.30;;;9.20;99.90;;;;;;480591;246;28330;-70
2021/09/25 02:42:18;;;;;;;3.60;3.30;;;9.20;99.90;;;;;;480384;246;27906;-70
2021/09/25 02:44:20;;;;;;;4.13;3.73;;;9.20;99.90;;;;;;480541;246;27670;-70
2021/09/25 02:46:21;;;;;;;3.87;3.33;;;9.20;99.90;;;;;;480591;246;27993;-70
2021/09/25 02:48:22;;;;;;;3.40;3.10;;;9.20;99.90;;;;;;480589;246;27990;-70
2021/09/25 02:50:23;;;;;;;4.40;4.03;;;9.20;99.90;;;;;;480548;246;27544;-70
2021/09/25 02:52:26;;;;;;;4.13;3.73;;;9.20;99.90;;;;;;480572;246;27818;-70
2021/09/25 02:54:26;;;;;;;3.53;3.23;;;9.20;99.90;;;;;;480515;246;27948;-70
2021/09/25 02:56:27;;;;;;;4.27;3.87;;;9.20;99.90;;;;;;480547;246;28004;-69
2021/09/25 02:58:28;;;;;;;4.20;3.20;;;9.20;99.90;;;;;;480592;246;27812;-69
2021/09/25 03:00:30;;;;;;;3.33;3.10;;;9.30;99.90;;;;;;480547;246;27781;-70
2021/09/25 03:02:31;;;;;;;5.13;4.10;;;9.30;99.90;;;;;;480583;246;27895;-70
2021/09/25 03:04:32;;;;;;;5.93;4.00;;;9.20;99.90;;;;;;480543;244;27776;-70
2021/09/25 03:06:33;;;;;;;5.00;3.73;;;9.30;99.90;;;;;;480574;246;27825;-70
2021/09/25 03:08:34;;;;;;;3.70;3.40;;;9.30;99.90;;;;;;480617;246;28162;-70
2021/09/25 03:10:36;;;;;;;3.90;3.57;;;9.20;99.90;;;;;;480550;246;27893;-70
2021/09/25 03:12:37;;;;;;;3.90;3.50;;;9.20;99.90;;;;;;480585;246;27952;-69
2021/09/25 03:14:38;;;;;;;3.70;3.40;;;9.20;99.90;;;;;;480527;246;28308;-69
2021/09/25 03:16:39;;;;;;;4.03;3.63;;;9.10;99.90;;;;;;480561;246;28379;-70
2021/09/25 03:18:41;;;;;;;3.60;3.30;;;9.10;99.90;;;;;;480618;246;28371;-70
2021/09/25 03:20:42;;;;;;;4.00;3.57;;;9.10;99.90;;;;;;480569;246;27847;-70
2021/09/25 03:22:43;;;;;;;4.03;3.63;;;9.00;99.90;;;;;;480588;246;27895;-69
2021/09/25 03:24:44;;;;;;;3.70;3.40;;;9.00;99.90;;;;;;480572;246;27773;-70
2021/09/25 03:26:46;;;;;;;4.27;3.87;;;9.00;99.90;;;;;;480601;246;27819;-70
2021/09/25 03:28:48;;;;;;;4.00;3.63;;;8.90;99.90;;;;;;480620;246;27819;-69
2021/09/25 03:30:49;;;;;;;4.10;3.80;;;8.90;99.90;;;;;;480556;246;28027;-70
2021/09/25 03:32:51;;;;;;;5.00;3.60;;;8.90;99.90;;;;;;480508;247;27654;-69
2021/09/25 03:34:52;;;;;;;4.10;3.77;;;8.90;99.90;;;;;;480525;246;27867;-69
2021/09/25 03:36:53;;;;;;;3.70;3.40;;;8.80;99.90;;;;;;480605;246;28096;-69
2021/09/25 03:38:54;;;;;;;3.90;3.60;;;8.70;99.90;;;;;;480565;246;28411;-70
2021/09/25 03:40:56;;;;;;;3.93;3.53;;;8.70;99.90;;;;;;480571;246;27949;-69
2021/09/25 03:42:57;;;;;;;4.00;3.60;;;8.70;99.90;;;;;;480580;246;28157;-70
2021/09/25 03:44:58;;;;;;;3.53;3.23;;;8.70;99.90;;;;;;480557;246;28378;-70
2021/09/25 03:46:59;;;;;;;3.80;3.50;;;8.70;99.90;;;;;;480585;246;28648;-70
2021/09/25 03:49:01;;;;;;;3.60;3.30;;;8.70;99.90;;;;;;480498;245;27853;-70
2021/09/25 03:51:02;;;;;;;3.70;3.40;;;8.60;99.90;;;;;;480517;246;27863;-69
2021/09/25 03:53:03;;;;;;;3.93;3.57;;;8.60;99.90;;;;;;480556;246;27656;-70
2021/09/25 03:55:04;;;;;;;3.57;3.27;;;8.60;99.90;;;;;;480545;246;27670;-70
2021/09/25 03:57:06;;;;;;;3.63;3.33;;;8.60;99.90;;;;;;480608;246;28012;-69
2021/09/25 03:59:07;;;;;;;4.07;3.67;;;8.50;99.90;;;;;;480612;246;27847;-69
2021/09/25 04:01:10;;;;;;;4.10;3.80;;;8.50;99.90;;;;;;480585;246;27921;-69
2021/09/25 04:03:09;;;;;;;4.10;3.70;;;8.50;99.90;;;;;;480536;246;28184;-70
2021/09/25 04:05:11;;;;;;;3.90;3.50;;;8.50;99.90;;;;;;480569;246;27812;-69
2021/09/25 04:07:12;;;;;;;4.33;3.60;;;8.60;99.90;;;;;;480597;246;27880;-70
2021/09/25 04:09:13;;;;;;;4.03;3.60;;;8.60;99.90;;;;;;480586;246;27842;-70
2021/09/25 04:11:14;;;;;;;3.93;3.30;;;8.60;99.90;;;;;;480554;246;27774;-70
2021/09/25 04:13:16;;;;;;;4.00;3.53;;;8.60;99.90;;;;;;480564;246;27890;-69
2021/09/25 04:15:17;;;;;;;4.10;3.80;;;8.60;99.90;;;;;;480592;246;27849;-69
2021/09/25 04:17:18;;;;;;;4.30;3.90;;;8.60;99.90;;;;;;480589;246;28138;-69
2021/09/25 04:19:19;;;;;;;3.90;3.57;;;8.60;99.90;;;;;;480618;246;28297;-69
2021/09/25 04:21:21;;;;;;;3.97;3.63;;;8.60;99.90;;;;;;480605;246;28356;-70
2021/09/25 04:23:22;;;;;;;3.87;3.47;;;8.60;99.90;;;;;;480596;246;28322;-69
2021/09/25 04:25:30;;;;;;;4.27;3.87;;;8.60;99.90;;;;;;480579;246;28337;-69
2021/09/25 04:27:29;;;;;;;3.97;3.60;;;8.60;99.90;;;;;;480326;247;27893;-69
2021/09/25 04:29:26;;;;;;;4.30;3.90;;;8.60;99.90;;;;;;480440;247;27429;-70
2021/09/25 04:31:27;;;;;;;3.33;3.13;;;8.60;99.90;;;;;;480544;246;27880;-70
2021/09/25 04:33:28;;;;;;;3.90;3.60;;;8.60;99.90;;;;;;480566;246;27840;-70
2021/09/25 04:35:29;;;;;;;4.40;4.00;;;8.50;99.90;;;;;;480580;246;27652;-69
2021/09/25 04:37:31;;;;;;;3.83;3.53;;;8.50;99.90;;;;;;480607;246;27568;-69
2021/09/25 04:39:32;;;;;;;3.90;3.60;;;8.50;99.90;;;;;;480586;246;27821;-69
2021/09/25 04:41:33;;;;;;;3.90;3.60;;;8.50;99.90;;;;;;480571;246;28010;-69
2021/09/25 04:43:34;;;;;;;3.53;3.23;;;8.50;99.90;;;;;;480562;246;27640;-70
2021/09/25 04:45:36;;;;;;;4.00;3.60;;;8.40;99.90;;;;;;480561;246;27892;-70
2021/09/25 04:47:37;;;;;;;3.60;3.30;;;8.40;99.90;;;;;;480595;246;27808;-70
2021/09/25 04:49:38;;;;;;;4.37;3.73;;;8.40;99.90;;;;;;480585;246;27851;-69
2021/09/25 04:51:39;;;;;;;4.23;3.83;;;8.40;99.90;;;;;;480577;246;27828;-69
2021/09/25 04:53:41;;;;;;;3.93;3.57;;;8.40;99.90;;;;;;480576;247;28480;-70
2021/09/25 04:55:42;;;;;;;3.80;3.50;;;8.40;99.90;;;;;;480583;246;28309;-70
2021/09/25 04:57:43;;;;;;;5.60;3.87;;;8.40;99.90;;;;;;480606;246;28281;-70
2021/09/25 04:59:44;;;;;;;4.50;3.97;;;8.40;99.90;;;;;;480581;246;28114;-69
2021/09/25 05:01:46;;;;;;;4.37;3.97;;;8.30;99.90;;;;;;480562;246;28443;-70
2021/09/25 05:03:48;;;;;;;4.10;3.77;;;8.30;99.90;;;;;;480525;246;28211;-69
2021/09/25 05:05:48;;;;;;;4.77;4.27;;;8.30;99.90;;;;;;480561;246;27770;-69
2021/09/25 05:07:49;;;;;;;5.00;4.30;;;8.40;99.90;;;;;;480586;246;27729;-69
2021/09/25 05:09:51;;;;;;;4.23;3.83;;;8.40;99.90;;;;;;480601;246;27883;-70
2021/09/25 05:11:52;;;;;;;4.23;3.83;;;8.40;99.90;;;;;;480540;246;27924;-69
2021/09/25 05:13:53;;;;;;;4.33;4.00;;;8.40;99.90;;;;;;480570;246;27826;-69
2021/09/25 05:15:54;;;;;;;4.60;4.20;;;8.40;99.90;;;;;;480572;246;27648;-69
2021/09/25 05:17:56;;;;;;;4.23;3.83;;;8.50;99.90;;;;;;480585;246;27702;-69
2021/09/25 05:19:57;;;;;;;4.37;3.90;;;8.50;99.90;;;;;;480609;246;27772;-70
2021/09/25 05:21:58;;;;;;;4.53;3.93;;;8.50;99.90;;;;;;480553;246;27864;-70
2021/09/25 05:24:01;;;;;;;3.67;3.37;;;8.50;99.90;;;;;;480587;246;27912;-69
2021/09/25 05:26:01;;;;;;;3.87;3.57;;;8.50;99.90;;;;;;480521;246;27829;-70
2021/09/25 05:28:02;;;;;;;3.63;3.30;;;8.50;99.90;;;;;;480555;246;27656;-70
2021/09/25 05:30:03;;;;;;;3.70;3.40;;;8.50;99.90;;;;;;480556;247;27436;-69
2021/09/25 05:32:04;;;;;;;4.03;3.53;;;8.50;99.90;;;;;;480541;246;27640;-70
2021/09/25 05:34:06;;;;;;;4.13;3.73;;;8.50;99.90;;;;;;480564;246;28819;-69
2021/09/25 05:36:07;;;;;;;4.17;3.77;;;8.50;99.90;;;;;;480563;246;28383;-70
2021/09/25 05:38:08;;;;;;;3.40;3.10;;;8.50;99.90;;;;;;480596;246;27905;-70
2021/09/25 05:40:09;;;;;;;3.93;3.53;;;8.50;99.90;;;;;;480579;245;28211;-69
2021/09/25 05:42:11;;;;;;;4.07;3.50;;;8.40;99.90;;;;;;480567;246;28376;-70
2021/09/25 05:44:12;;;;;;;4.00;3.60;;;8.40;99.90;;;;;;480557;246;27711;-69
2021/09/25 05:46:13;;;;;;;3.80;3.30;;;8.30;99.90;;;;;;480544;246;27919;-69
2021/09/25 05:48:14;;;;;;;3.60;3.30;;;8.30;99.90;;;;;;480528;246;28017;-70
2021/09/25 05:50:16;;;;;;;3.50;3.13;;;8.30;99.90;;;;;;480572;246;27870;-69
2021/09/25 05:52:17;;;;;;;3.57;3.27;;;8.30;99.90;;;;;;480291;246;27886;-69
2021/09/25 05:54:18;;;;;;;3.83;3.53;;;8.30;99.90;;;;;;480571;247;27534;-70
2021/09/25 05:56:19;;;;;;;3.70;3.40;;;8.30;99.90;;;;;;480579;246;27768;-70
2021/09/25 05:58:21;;;;;;;3.70;3.40;;;8.40;99.90;;;;;;480592;246;27897;-69
2021/09/25 06:00:22;;;;;;;4.30;3.60;;;8.40;99.90;;;;;;480548;247;27432;-70
2021/09/25 06:02:23;;;;;;;4.17;3.73;;;8.40;99.90;;;;;;480529;246;27768;-70
2021/09/25 06:04:24;;;;;;;2.80;2.60;;;8.40;99.90;;;;;;480554;246;27642;-70
2021/09/25 06:06:27;;;;;;;3.83;3.53;;;8.40;99.90;;;;;;480575;246;27747;-70
2021/09/25 06:08:27;;;;;;;3.80;3.50;;;8.50;99.90;;;;;;480548;247;27512;-70
2021/09/25 06:10:28;;;;;;;3.77;3.47;;;8.50;99.90;;;;;;480587;246;27666;-70
2021/09/25 06:12:29;;;;;;;3.73;3.43;;;8.50;99.90;;;;;;480553;246;28234;-69
2021/09/25 06:14:31;;;;;;;4.43;3.53;;;8.50;99.90;;;;;;480595;246;28749;-69
2021/09/25 06:16:32;;;;;;;4.13;3.73;;;8.50;99.90;;;;;;480565;246;28161;-69
2021/09/25 06:18:33;;;;;;;5.77;3.83;;;8.60;99.90;;;;;;480583;246;28018;-69
2021/09/25 06:20:34;;;;;;;4.40;4.10;;;8.60;99.90;;;;;;480582;246;28087;-70
2021/09/25 06:22:36;;;;;;;3.40;3.10;;;8.60;99.90;;;;;;480552;246;27820;-69
2021/09/25 06:24:37;;;;;;;3.60;3.17;;;8.70;99.90;;;;;;480597;246;27807;-70
2021/09/25 06:26:38;;;;;;;3.97;3.40;;;8.70;99.90;;;;;;480551;246;27786;-70
2021/09/25 06:28:39;;;;;;;3.80;3.50;;;8.80;99.90;;;;;;480571;246;27584;-69
2021/09/25 06:30:41;;;;;;;3.40;3.10;;;8.80;99.90;;;;;;480573;246;27787;-70
2021/09/25 06:32:42;;;;;;;3.33;3.00;;;8.90;99.90;;;;;;480535;246;27708;-70
2021/09/25 06:34:43;;;;;;;5.30;3.87;;;8.90;99.90;;;;;;480610;246;27838;-70
2021/09/25 06:36:45;;;;;;;3.90;3.50;;;9.00;99.90;;;;;;480552;246;27873;-69
2021/09/25 06:38:46;;;;;;;3.90;3.50;;;9.00;99.90;;;;;;480405;246;27881;-69
2021/09/25 06:40:47;;;;;;;3.57;3.27;;;9.10;99.90;;;;;;480340;245;28209;-70
2021/09/25 06:42:48;;;;;;;3.40;3.10;;;9.10;99.90;;;;;;480598;246;28096;-70
2021/09/25 06:44:50;;;;;;;3.93;3.57;;;9.10;99.90;;;;;;480605;246;28252;-70
2021/09/25 06:46:51;;;;;;;4.37;3.43;;;9.20;99.90;;;;;;480572;246;28222;-70
2021/09/25 06:48:52;;;;;;;4.57;3.40;;;9.20;99.90;;;;;;480597;246;28384;-70
2021/09/25 06:50:53;;;;;;;3.30;3.10;;;9.30;99.90;;;;;;480626;246;28453;-70
2021/09/25 06:52:55;;;;;;;5.53;3.50;;;9.40;99.90;;;;;;480620;246;28221;-70
2021/09/25 06:54:56;;;;;;;5.80;3.90;;;9.40;99.90;;;;;;480636;246;27923;-69
2021/09/25 06:56:57;;;;;;;4.80;4.20;;;9.50;99.90;;;;;;480550;246;27492;-70
2021/09/25 06:58:58;;;;;;;4.87;4.40;;;9.70;99.90;;;;;;480559;246;27849;-70
2021/09/25 07:01:00;;;;;;;4.77;4.30;;;9.80;99.90;;;;;;480604;246;27889;-70
2021/09/25 07:03:01;;;;;;;4.43;3.83;;;9.90;99.90;;;;;;480611;246;27721;-70
2021/09/25 07:05:02;;;;;;;4.60;4.20;;;10.00;99.90;;;;;;480600;246;27753;-70
2021/09/25 07:07:03;;;;;;;4.23;3.83;;;10.00;99.90;;;;;;480567;246;27777;-69
2021/09/25 07:09:05;;;;;;;4.87;4.10;;;10.10;99.90;;;;;;480585;246;27939;-69
2021/09/25 07:11:06;;;;;;;5.53;4.00;;;10.30;99.90;;;;;;480619;246;27899;-70
2021/09/25 07:13:07;;;;;;;5.47;3.53;;;10.50;99.90;;;;;;480567;246;27780;-70
2021/09/25 07:15:08;;;;;;;4.70;4.20;;;10.70;99.90;;;;;;480592;246;27807;-70
2021/09/25 07:17:10;;;;;;;4.43;4.03;;;10.90;99.90;;;;;;480521;246;27845;-70
2021/09/25 07:19:11;;;;;;;3.27;3.07;;;11.00;99.90;;;;;;480589;246;28317;-70
2021/09/25 07:21:12;;;;;;;4.03;3.63;;;11.20;99.90;;;;;;480593;247;28261;-70
2021/09/25 07:23:13;;;;;;;4.13;3.73;;;11.30;99.90;;;;;;480580;246;27639;-70
2021/09/25 07:25:15;;;;;;;4.03;3.63;;;11.40;99.90;;;;;;480589;246;27930;-70
2021/09/25 07:27:16;;;;;;;3.83;3.53;;;11.50;99.90;;;;;;480542;246;27856;-70
2021/09/25 07:29:17;;;;;;;4.43;3.50;;;11.50;99.90;;;;;;480527;246;27882;-70
2021/09/25 07:31:20;;;;;;;3.80;3.37;;;11.60;99.90;;;;;;480606;246;27905;-70
2021/09/25 07:33:21;;;;;;;3.40;3.10;;;11.80;99.90;;;;;;480541;246;27812;-70
2021/09/25 07:35:23;;;;;;;3.83;3.53;;;11.90;99.90;;;;;;480555;246;27938;-70
2021/09/25 07:37:24;;;;;;;3.83;3.43;;;11.90;99.90;;;;;;480507;246;28297;-70
2021/09/25 07:39:25;;;;;;;3.30;3.00;;;12.10;99.90;;;;;;480545;246;28394;-70
2021/09/25 07:41:26;;;;;;;4.27;3.80;;;12.10;99.90;;;;;;480554;246;28208;-70
2021/09/25 07:43:27;;;;;;;4.60;3.63;;;12.30;99.90;;;;;;480492;246;27933;-70
2021/09/25 07:45:29;;;;;;;3.60;3.30;;;12.40;99.90;;;;;;480538;246;27976;-70
2021/09/25 07:47:30;;;;;;;3.93;3.63;;;12.50;99.90;;;;;;480559;246;27868;-71
2021/09/25 07:49:31;;;;;;;5.20;4.70;;;12.60;99.90;;;;;;480564;246;27804;-70
2021/09/25 07:51:32;;;;;;;4.33;3.93;;;12.70;99.90;;;;;;480544;246;27951;-69
2021/09/25 07:53:34;;;;;;;3.50;3.20;;;12.70;99.90;;;;;;480521;244;28007;-70
2021/09/25 07:55:35;;;;;;;4.97;3.90;;;12.90;99.90;;;;;;480543;246;28102;-70
2021/09/25 07:57:36;;;;;;;4.17;3.77;;;12.90;99.90;;;;;;480557;246;27955;-70
2021/09/25 07:59:37;;;;;;;4.47;3.53;;;13.00;99.90;;;;;;480592;246;28086;-70
2021/09/25 08:01:39;;;;;;;4.50;3.80;;;13.10;99.90;;;;;;480575;246;28334;-70
2021/09/25 08:03:41;;;;;;;3.73;3.37;;;13.10;99.90;;;;;;480550;246;28622;-70
2021/09/25 08:05:41;;;;;;;3.73;3.43;;;13.20;99.90;;;;;;480507;247;29419;-70
2021/09/25 08:07:42;;;;;;;3.60;3.17;;;13.20;99.90;;;;;;480582;246;28829;-70
2021/09/25 08:09:44;;;;;;;4.10;3.70;;;13.30;99.90;;;;;;480562;246;28163;-70
2021/09/25 08:11:45;;;;;;;4.10;3.67;;;13.30;99.90;;;;;;480508;246;28315;-70
2021/09/25 08:13:46;;;;;;;3.80;3.50;;;13.40;99.90;;;;;;480536;246;28123;-70
2021/09/25 08:15:47;;;;;;;3.97;3.67;;;13.50;99.90;;;;;;480499;246;28131;-70
2021/09/25 08:17:49;;;;;;;3.80;3.50;;;13.50;99.90;;;;;;480541;246;28225;-70
2021/09/25 08:19:50;;;;;;;3.90;3.60;;;13.60;99.90;;;;;;480585;246;28175;-70
2021/09/25 08:21:51;;;;;;;4.33;3.97;;;13.60;99.90;;;;;;480574;246;28435;-72
2021/09/25 08:23:52;;;;;;;4.10;3.80;;;13.70;99.90;;;;;;480564;246;28329;-70
2021/09/25 08:25:54;;;;;;;3.47;3.17;;;13.80;99.90;;;;;;480578;246;29143;-69
2021/09/25 08:27:55;;;;;;;4.00;3.60;;;13.90;99.90;;;;;;480579;246;29887;-70
2021/09/25 08:29:56;;;;;;;3.63;3.33;;;14.00;99.90;;;;;;480617;246;28698;-70
2021/09/25 08:31:57;;;;;;;3.70;3.40;;;14.10;99.90;;;;;;480579;246;28413;-70
2021/09/25 08:33:59;;;;;;;4.17;3.77;;;14.20;99.90;;;;;;480527;246;28137;-70
2021/09/25 08:36:01;;;;;;;4.00;3.70;;;14.20;99.90;;;;;;480598;246;28248;-71
2021/09/25 08:38:01;;;;;;;3.87;3.57;;;14.20;99.90;;;;;;480513;246;27990;-72
2021/09/25 08:40:02;;;;;;;3.80;3.50;;;14.30;99.90;;;;;;480551;246;28245;-70
2021/09/25 08:42:04;;;;;;;4.00;3.53;;;14.30;99.90;;;;;;480573;246;28665;-71
2021/09/25 08:44:05;;;;;;;4.20;3.90;;;14.40;99.90;;;;;;480521;246;28023;-71
2021/09/25 08:46:07;;;;;;;4.27;3.87;;;14.50;99.90;;;;;;480582;246;28274;-72
2021/09/25 08:48:07;;;;;;;3.97;3.60;;;14.50;99.90;;;;;;480522;246;28178;-70
2021/09/25 08:50:09;;;;;;;4.10;3.80;;;14.60;99.90;;;;;;480573;246;28542;-71
2021/09/25 08:52:11;;;;;;;4.67;4.27;;;;;;;;;;480576;246;28782;-72
2021/09/25 08:54:12;;;;;;;4.30;3.90;;;14.70;99.90;;;;;;480578;245;26702;-70
2021/09/25 08:56:14;;;;;;;4.10;3.80;;;14.90;99.90;;;;;;480584;247;28080;-70
2021/09/25 08:58:15;;;;;;;4.20;3.80;;;15.00;99.90;;;;;;480452;247;28712;-70
2021/09/25 09:00:16;;;;;;;4.97;4.57;;;15.10;99.90;;;;;;480534;246;28092;-70
2021/09/25 09:02:17;;;;;;;4.17;3.77;;;15.30;99.90;;;;;;480524;246;28746;-69
2021/09/25 09:04:19;;;;;;;5.30;4.20;;;15.30;99.90;;;;;;480552;246;28808;-72
2021/09/25 09:06:20;;;;;;;5.10;4.60;;;15.20;99.90;;;;;;480576;246;28886;-71
2021/09/25 09:08:21;;;;;;;4.47;4.07;;;15.40;99.90;;;;;;480540;246;28533;-71
2021/09/25 09:10:22;;;;;;;4.27;3.87;;;15.40;99.90;;;;;;480531;246;28236;-71
2021/09/25 09:12:24;;;;;;;4.33;4.00;;;15.30;99.90;;;;;;480516;246;28432;-71
2021/09/25 09:14:26;;;;;;;5.70;4.30;;;15.40;99.90;;;;;;480572;246;28160;-71
2021/09/25 09:16:27;;;;;;;6.67;4.23;;;15.30;99.90;;;;;;480547;246;28404;-71
2021/09/25 09:18:30;;;;;;;4.30;3.90;;;15.30;99.90;;;;;;480478;246;28150;-71
2021/09/25 09:20:30;;;;;;;5.80;4.07;;;15.50;99.90;;;;;;480421;247;28842;-71
2021/09/25 09:22:31;;;;;;;4.93;4.53;;;15.60;99.90;;;;;;480404;246;28883;-71
2021/09/25 09:24:32;;;;;;;4.40;4.07;;;15.80;99.90;;;;;;480284;246;28807;-71
2021/09/25 09:26:34;;;;;;;4.63;4.13;;;15.90;99.90;;;;;;480277;246;28365;-71
2021/09/25 09:28:35;;;;;;;5.40;4.90;;;16.40;99.90;;;;;;480352;246;28443;-71
2021/09/25 09:30:36;;;;;;;4.83;4.43;;;16.30;99.90;;;;;;480568;246;28656;-71
2021/09/25 09:32:37;;;;;;;4.10;3.80;;;16.20;99.90;;;;;;480559;246;28709;-71
2021/09/25 09:34:39;;;;;;;5.17;4.67;;;16.10;99.90;;;;;;480516;246;28686;-71
2021/09/25 09:36:41;;;;;;;7.43;4.37;;;16.20;99.90;;;;;;480560;246;28658;-71
2021/09/25 09:38:41;;;;;;;5.43;4.93;;;16.30;99.90;;;;;;480503;246;28744;-69
2021/09/25 09:40:42;;;;;;;4.77;4.37;;;16.30;99.90;;;;;;480529;246;28631;-72
2021/09/25 09:42:44;;;;;;;5.20;4.80;;;16.20;99.90;;;;;;480559;246;28697;-71
2021/09/25 09:44:45;;;;;;;3.80;3.53;;;16.20;99.90;;;;;;480535;246;29036;-71
2021/09/25 09:46:46;;;;;;;4.50;4.10;;;16.20;99.90;;;;;;480571;246;29188;-71
2021/09/25 09:48:48;;;;;;;4.17;3.87;;;16.30;99.90;;;;;;480566;246;29277;-71
2021/09/25 09:50:50;;;;;;;4.63;4.23;;;16.30;99.90;;;;;;480547;247;28589;-71
2021/09/25 09:52:50;;;;;;;4.57;4.17;;;16.40;99.90;;;;;;480526;247;28737;-69
2021/09/25 09:54:53;;;;;;;3.90;3.60;;;16.50;99.90;;;;;;480526;246;28674;-69
2021/09/25 09:56:52;;;;;;;4.30;3.90;;;16.50;99.90;;;;;;480470;247;28651;-69
2021/09/25 09:58:54;;;;;;;4.63;4.23;;;16.60;99.90;;;;;;480550;246;28708;-71
2021/09/25 10:00:55;;;;;;;4.40;4.00;;;16.70;99.90;;;;;;480553;246;28596;-72
2021/09/25 10:02:56;;;;;;;4.20;3.90;;;16.70;99.90;;;;;;480588;246;28752;-71
2021/09/25 10:04:57;;;;;;;4.30;3.90;;;16.80;99.90;;;;;;480577;245;28712;-72
2021/09/25 10:06:59;;;;;;;4.90;3.70;;;16.70;99.90;;;;;;480578;246;28629;-72
2021/09/25 10:09:01;;;;;;;4.20;3.80;;;16.60;99.90;;;;;;480563;246;29208;-71
2021/09/25 10:11:01;;;;;;;4.27;3.87;;;16.70;99.90;;;;;;480539;247;29181;-69
2021/09/25 10:13:02;;;;;;;4.73;4.17;;;16.70;99.90;;;;;;480569;246;29115;-70
2021/09/25 10:15:04;;;;;;;4.50;4.10;;;16.70;99.90;;;;;;480524;246;29133;-69
2021/09/25 10:17:05;;;;;;;4.10;3.70;;;16.70;99.90;;;;;;480514;246;28675;-70
2021/09/25 10:19:06;;;;;;;3.80;3.50;;;16.90;99.90;;;;;;480536;246;28649;-72
2021/09/25 10:21:07;;;;;;;4.10;3.57;;;17.00;99.90;;;;;;480549;246;28662;-72
2021/09/25 10:23:09;;;;;;;4.00;3.70;;;17.10;99.90;;;;;;480560;246;28699;-70
2021/09/25 10:25:10;;;;;;;4.07;3.77;;;17.10;99.90;;;;;;480530;246;28677;-70
2021/09/25 10:27:11;;;;;;;4.73;3.50;;;17.20;99.90;;;;;;480534;246;28739;-70
2021/09/25 10:29:12;;;;;;;3.97;3.67;;;17.40;99.90;;;;;;480551;246;28716;-70
2021/09/25 10:31:14;;;;;;;3.50;3.20;;;17.40;99.90;;;;;;480456;246;28581;-70
2021/09/25 10:33:15;;;;;;;4.20;3.90;;;17.40;99.90;;;;;;480375;246;29101;-69
2021/09/25 10:35:17;;;;;;;5.20;3.93;;;17.50;99.90;;;;;;480531;246;29117;-72